Time;durP1;ratioP1;P1;durP2;ratioP2;P2;SDS_P1;SDS_P2;PMS_P1;PMS_P2;Temp;Humidity;BMP_temperature;BMP_pressure;BME280_temperature;BME280_humidity;BME280_pressure;Samples;Min_cycle;Max_cycle;Signal;HPM_P1;HPM_P2
2024/03/28 00:00:06;;;;;;;15.10;9.10;;;;;;;5.08;100.00;100229.25;111030;1235;72895;-66
2024/03/28 00:02:34;;;;;;;18.00;10.10;;;;;;;5.15;100.00;100232.59;111034;1233;61923;-65
2024/03/28 00:05:00;;;;;;;16.30;9.80;;;;;;;5.22;100.00;100227.73;111005;1235;61902;-65
2024/03/28 00:07:28;;;;;;;15.40;9.70;;;;;;;5.28;100.00;100222.57;110996;1234;74114;-66
2024/03/28 00:09:54;;;;;;;14.40;9.70;;;;;;;5.35;100.00;100223.46;110972;1234;71160;-66
2024/03/28 00:12:21;;;;;;;14.50;10.00;;;;;;;5.42;100.00;100221.46;110999;1235;73455;-66
2024/03/28 00:14:48;;;;;;;14.20;9.80;;;;;;;5.49;100.00;100221.08;111020;1235;62038;-65
2024/03/28 00:17:15;;;;;;;12.70;7.90;;;;;;;5.57;100.00;100220.83;111016;1233;61904;-67
2024/03/28 00:19:42;;;;;;;13.70;8.80;;;;;;;5.63;100.00;100220.70;110979;1235;76212;-66
2024/03/28 00:22:09;;;;;;;12.40;8.30;;;;;;;5.71;100.00;100222.13;110994;1236;71562;-66
2024/03/28 00:24:36;;;;;;;12.90;8.50;;;;;;;5.76;100.00;100224.74;110960;1234;72834;-66
2024/03/28 00:27:03;;;;;;;14.00;8.90;;;;;;;5.81;100.00;100221.36;110990;1234;62020;-66
2024/03/28 00:29:30;;;;;;;12.50;8.40;;;;;;;5.86;100.00;100220.92;111023;1235;62039;-68
2024/03/28 00:31:57;;;;;;;13.30;8.90;;;;;;;5.88;100.00;100209.72;111031;1235;75226;-66
2024/03/28 00:34:24;;;;;;;13.00;8.50;;;;;;;5.87;100.00;100210.66;111019;1234;71182;-67
2024/03/28 00:36:51;;;;;;;12.60;8.70;;;;;;;5.87;100.00;100214.38;110976;1235;70521;-66
2024/03/28 00:39:18;;;;;;;13.80;8.90;;;;;;;5.87;100.00;100204.77;111049;1233;62113;-67
2024/03/28 00:41:45;;;;;;;14.70;9.30;;;;;;;5.83;100.00;100198.70;111022;1233;59656;-66
2024/03/28 00:44:11;;;;;;;15.20;9.00;;;;;;;5.81;100.00;100198.11;111005;1233;76142;-67
2024/03/28 00:46:38;;;;;;;15.50;8.70;;;;;;;5.80;100.00;100192.77;111023;1237;72587;-67
2024/03/28 00:49:05;;;;;;;12.20;8.90;;;;;;;5.81;100.00;100191.39;110980;1235;72536;-66
2024/03/28 00:51:32;;;;;;;13.20;8.50;;;;;;;5.84;100.00;100189.48;111042;1233;62342;-67
2024/03/28 00:53:59;;;;;;;12.30;8.50;;;;;;;5.88;100.00;100187.45;111062;1237;61969;-67
2024/03/28 00:56:26;;;;;;;11.30;7.70;;;;;;;5.92;100.00;100182.61;111023;1235;76002;-67
2024/03/28 00:58:52;;;;;;;15.00;9.30;;;;;;;5.97;100.00;100179.60;111008;1236;73252;-67
2024/03/28 01:01:19;;;;;;;11.40;8.30;;;;;;;6.01;100.00;100175.84;111093;1235;70995;-68
2024/03/28 01:03:46;;;;;;;13.80;8.20;;;;;;;6.03;100.00;100175.64;111084;1234;61993;-66
2024/03/28 01:06:13;;;;;;;12.60;8.00;;;;;;;6.06;100.00;100170.02;111100;1238;61882;-66
2024/03/28 01:08:40;;;;;;;11.70;7.50;;;;;;;6.09;100.00;100162.45;111084;1235;75791;-68
2024/03/28 01:11:07;;;;;;;11.10;7.00;;;;;;;6.13;100.00;100160.23;111107;1235;73465;-65
2024/03/28 01:13:34;;;;;;;11.50;7.80;;;;;;;6.15;100.00;100158.20;110893;1235;73313;-66
2024/03/28 01:16:02;;;;;;;11.20;6.80;;;;;;;6.21;100.00;100156.86;111037;1234;62268;-67
2024/03/28 01:18:29;;;;;;;11.50;7.10;;;;;;;6.27;100.00;100156.71;111080;1235;61908;-66
2024/03/28 01:20:56;;;;;;;8.60;5.50;;;;;;;6.36;100.00;100149.82;110646;1237;543645;-66
2024/03/28 01:23:23;;;;;;;11.20;7.10;;;;;;;6.44;100.00;100145.44;111006;1235;72494;-66
2024/03/28 01:25:50;;;;;;;8.90;6.00;;;;;;;6.51;100.00;100143.77;110976;1233;72807;-67
2024/03/28 01:28:19;;;;;;;8.20;5.80;;;;;;;6.60;100.00;100140.78;110946;1237;62020;-67
2024/03/28 01:30:46;;;;;;;10.10;6.80;;;;;;;6.69;100.00;100142.77;111020;1235;61964;-67
2024/03/28 01:33:13;;;;;;;11.60;6.60;;;;;;;6.79;100.00;100149.36;110988;1234;75245;-66
2024/03/28 01:35:41;;;;;;;9.70;6.60;;;;;;;6.88;100.00;100146.52;110975;1236;72444;-66
2024/03/28 01:38:07;;;;;;;8.80;6.10;;;;;;;6.95;100.00;100150.72;110956;1235;71275;-65
2024/03/28 01:40:34;;;;;;;9.90;6.70;;;;;;;6.99;100.00;100140.53;110969;1233;61974;-67
2024/03/28 01:43:03;;;;;;;9.40;6.50;;;;;;;7.00;100.00;100139.06;111009;1233;61864;-67
2024/03/28 01:45:30;;;;;;;11.90;7.70;;;;;;;7.02;100.00;100134.64;110979;1236;74365;-66
2024/03/28 01:47:57;;;;;;;9.10;6.60;;;;;;;7.02;100.00;100138.08;110832;1235;72811;-67
2024/03/28 01:50:28;;;;;;;10.20;6.80;;;;;;;7.02;100.00;100134.30;111063;1234;72206;-67
2024/03/28 01:52:55;;;;;;;10.70;6.40;;;;;;;7.06;100.00;100135.48;111095;1232;62022;-66
2024/03/28 01:55:22;;;;;;;9.20;6.30;;;;;;;7.10;100.00;100135.73;110920;1233;61990;-67
2024/03/28 01:57:49;;;;;;;8.60;6.30;;;;;;;7.12;100.00;100137.65;111060;1236;75542;-66
2024/03/28 02:00:17;;;;;;;8.70;6.30;;;;;;;7.15;100.00;100135.17;111084;1234;72463;-66
2024/03/28 02:02:44;;;;;;;9.60;6.70;;;;;;;7.16;100.00;100133.80;110887;1234;72537;-66
2024/03/28 02:05:11;;;;;;;11.40;6.60;;;;;;;7.16;100.00;100132.27;110990;1234;61995;-66
2024/03/28 02:07:38;;;;;;;9.90;6.60;;;;;;;7.16;100.00;100131.70;110992;1232;62010;-66
2024/03/28 02:10:06;;;;;;;9.70;6.50;;;;;;;7.17;100.00;100134.26;111028;1234;75851;-66
2024/03/28 02:12:33;;;;;;;9.00;6.30;;;;;;;7.18;100.00;100130.92;110976;1234;71372;-66
2024/03/28 02:15:00;;;;;;;9.40;6.40;;;;;;;7.18;100.00;100128.96;110740;1234;71198;-66
2024/03/28 02:17:27;;;;;;;9.40;5.70;;;;;;;7.17;100.00;100126.67;111046;1236;62001;-67
2024/03/28 02:19:54;;;;;;;9.00;6.10;;;;;;;7.10;100.00;100123.80;111109;1235;61866;-65
2024/03/28 02:22:20;;;;;;;9.00;6.00;;;;;;;7.08;100.00;100118.89;111115;1236;76247;-66
2024/03/28 02:24:48;;;;;;;8.00;5.40;;;;;;;7.14;100.00;100123.33;111024;1235;73023;-66
2024/03/28 02:27:14;;;;;;;8.60;5.80;;;;;;;7.17;100.00;100123.69;111081;1233;73549;-66
2024/03/28 02:29:42;;;;;;;8.60;5.90;;;;;;;7.20;100.00;100121.81;111050;1233;61988;-67
2024/03/28 02:32:09;;;;;;;7.90;6.10;;;;;;;7.24;100.00;100111.62;111090;1235;61991;-65
2024/03/28 02:34:35;;;;;;;8.00;5.70;;;;;;;7.26;100.00;100117.59;110984;1236;73780;-65
2024/03/28 02:37:02;;;;;;;8.70;6.20;;;;;;;7.27;100.00;100112.88;110998;1233;72583;-66
2024/03/28 02:39:30;;;;;;;8.80;5.90;;;;;;;7.29;100.00;100112.64;110943;1237;71310;-65
2024/03/28 02:41:56;;;;;;;8.40;5.80;;;;;;;7.32;100.00;100115.39;110990;1234;62029;-66
2024/03/28 02:44:23;;;;;;;8.30;5.60;;;;;;;7.35;100.00;100112.01;110850;1234;61876;-66
2024/03/28 02:46:50;;;;;;;9.80;6.10;;;;;;;7.36;100.00;100109.31;111016;1233;76148;-66
2024/03/28 02:49:17;;;;;;;8.70;6.20;;;;;;;7.35;100.00;100107.55;111001;1234;71619;-66
2024/03/28 02:51:44;;;;;;;7.10;5.50;;;;;;;7.31;100.00;100113.25;110986;1234;73207;-66
2024/03/28 02:54:11;;;;;;;9.10;5.90;;;;;;;7.31;100.00;100105.54;111000;1232;62032;-65
2024/03/28 02:56:38;;;;;;;7.50;5.60;;;;;;;7.32;100.00;100100.30;110849;1238;61942;-66
2024/03/28 02:59:04;;;;;;;9.10;5.70;;;;;;;7.31;100.00;100094.13;110993;1237;74304;-67
2024/03/28 03:01:33;;;;;;;8.50;5.80;;;;;;;7.31;100.00;100100.23;111062;1234;72729;-66
2024/03/28 03:04:00;;;;;;;7.60;5.20;;;;;;;7.32;100.00;100100.08;111037;1235;71118;-66
2024/03/28 03:06:28;;;;;;;7.90;5.50;;;;;;;7.33;100.00;100101.10;110993;1233;62029;-65
2024/03/28 03:08:55;;;;;;;8.50;5.30;;;;;;;7.35;100.00;100097.77;111013;1233;61914;-66
2024/03/28 03:11:22;;;;;;;8.10;4.80;;;;;;;7.39;100.00;100098.04;111015;1234;75112;-66
2024/03/28 03:13:49;;;;;;;6.40;4.80;;;;;;;7.41;100.00;100094.55;111028;1235;72644;-66
2024/03/28 03:16:15;;;;;;;9.00;4.90;;;;;;;7.41;100.00;100085.96;111025;1234;72308;-67
2024/03/28 03:18:42;;;;;;;7.00;4.80;;;;;;;7.44;100.00;100084.08;110986;1233;61888;-66
2024/03/28 03:21:10;;;;;;;6.60;4.60;;;;;;;7.48;100.00;100083.76;110973;1234;62481;-68
2024/03/28 03:23:45;;;;;;;6.10;4.40;;;;;;;7.52;100.00;100077.84;111054;1234;74712;-66
2024/03/28 03:26:20;;;;;;;8.70;4.80;;;;;;;7.52;100.00;100076.04;110992;1234;73312;-65
2024/03/28 03:35:50;;;;;;;5.80;4.10;;;;;;;7.57;100.00;100081.46;111035;1233;61441;-67
2024/03/28 03:38:18;;;;;;;7.70;4.80;;;;;;;7.58;100.00;100079.77;111081;1233;75904;-66
2024/03/28 03:40:45;;;;;;;6.90;4.60;;;;;;;7.57;100.00;100078.69;111086;1237;73277;-66
2024/03/28 03:43:11;;;;;;;5.90;4.30;;;;;;;7.55;100.00;100068.84;111074;1235;71141;-66
2024/03/28 03:45:38;;;;;;;7.70;4.40;;;;;;;7.54;100.00;100071.28;111064;1233;62064;-68
2024/03/28 03:48:06;;;;;;;7.50;4.50;;;;;;;7.55;100.00;100067.52;110915;1234;60754;-67
2024/03/28 03:50:32;;;;;;;5.70;4.40;;;;;;;7.55;100.00;100065.33;111060;1237;73075;-68
2024/03/28 03:53:00;;;;;;;6.10;4.50;;;;;;;7.54;100.00;100059.01;111084;1234;72353;-68
2024/03/28 03:55:27;;;;;;;6.40;4.50;;;;;;;7.58;99.96;100053.25;111062;1233;73114;-67
2024/03/28 03:57:53;;;;;;;6.00;4.40;;;;;;;7.59;99.51;100046.40;110998;1234;61998;-66
2024/03/28 04:00:21;;;;;;;6.70;4.40;;;;;;;7.58;99.02;100039.44;111028;1232;61382;-66
2024/03/28 04:02:47;;;;;;;6.70;4.70;;;;;;;7.56;98.62;100038.14;111067;1236;73835;-66
2024/03/28 04:05:14;;;;;;;6.20;4.50;;;;;;;7.55;98.40;100034.82;111041;1233;72669;-66
2024/03/28 04:07:42;;;;;;;8.10;5.30;;;;;;;7.54;98.04;100034.98;111013;1235;73322;-66
2024/03/28 04:10:09;;;;;;;6.60;4.50;;;;;;;7.56;97.65;100036.96;111077;1234;61818;-67
2024/03/28 04:12:36;;;;;;;8.40;4.70;;;;;;;7.58;97.00;100036.93;111094;1234;60794;-66
2024/03/28 04:15:05;;;;;;;6.20;4.10;;;;;;;7.61;96.44;100036.54;111076;1232;75466;-66
2024/03/28 04:17:35;;;;;;;8.20;4.20;;;;;;;7.61;95.83;100036.86;110964;1238;72701;-66
2024/03/28 04:20:02;;;;;;;6.50;4.20;;;;;;;7.59;95.51;100033.02;111084;1234;72848;-67
2024/03/28 04:22:30;;;;;;;6.30;4.10;;;;;;;7.63;94.20;100034.05;111089;1233;62464;-69
2024/03/28 04:24:57;;;;;;;6.70;4.50;;;;;;;7.67;93.22;100030.76;111061;1234;62021;-68
2024/03/28 04:27:24;;;;;;;5.50;3.80;;;;;;;7.68;92.60;100030.45;111031;1234;75185;-67
2024/03/28 04:29:51;;;;;;;6.70;4.10;;;;;;;7.70;91.94;100025.47;110980;1236;72716;-66
2024/03/28 04:32:27;;;;;;;5.90;4.10;;;;;;;7.70;91.52;100024.30;111011;1234;73386;-66
2024/03/28 04:34:55;;;;;;;6.90;4.40;;;;;;;7.72;91.03;100023.48;111062;1234;62033;-66
2024/03/28 04:37:22;;;;;;;5.90;4.10;;;;;;;7.75;90.78;100020.95;111131;1235;61748;-67
2024/03/28 04:39:48;;;;;;;6.50;4.10;;;;;;;7.77;90.27;100023.04;111083;1234;75838;-66
2024/03/28 04:42:15;;;;;;;6.40;4.00;;;;;;;7.79;89.94;100023.27;111094;1234;73050;-65
2024/03/28 04:44:43;;;;;;;5.30;3.50;;;;;;;7.80;89.62;100020.05;111012;1233;72697;-66
2024/03/28 04:47:10;;;;;;;5.90;3.90;;;;;;;7.81;88.76;100019.88;110988;1234;62017;-65
2024/03/28 04:49:37;;;;;;;6.20;3.90;;;;;;;7.82;88.19;100014.57;111021;1232;61977;-65
2024/03/28 04:52:04;;;;;;;6.40;4.00;;;;;;;7.84;87.90;100019.70;111002;1234;75714;-65
2024/03/28 04:54:32;;;;;;;6.60;4.10;;;;;;;7.86;87.39;100017.00;111032;1234;72492;-66
2024/03/28 04:56:59;;;;;;;6.10;4.00;;;;;;;7.87;86.75;100012.06;111061;1236;72462;-66
2024/03/28 04:59:26;;;;;;;6.70;4.00;;;;;;;7.89;86.03;100010.81;110985;1234;61918;-65
2024/03/28 05:01:52;;;;;;;5.90;3.90;;;;;;;7.92;85.39;100003.29;111056;1232;61869;-66
2024/03/28 05:04:19;;;;;;;5.20;3.50;;;;;;;7.93;84.95;99997.70;111080;1233;75289;-65
2024/03/28 05:06:46;;;;;;;5.10;3.60;;;;;;;7.95;84.55;99994.02;111107;1233;73349;-66
2024/03/28 05:09:13;;;;;;;5.70;3.80;;;;;;;7.97;83.87;99989.09;111026;1233;73435;-66
2024/03/28 05:11:42;;;;;;;6.80;3.60;;;;;;;7.99;83.64;99984.41;111002;1234;62045;-66
2024/03/28 05:14:09;;;;;;;6.10;3.80;;;;;;;8.03;83.57;99985.84;111037;1233;61987;-66
2024/03/28 05:16:37;;;;;;;5.40;3.50;;;;;;;8.06;83.17;99982.35;111026;1233;75131;-67
2024/03/28 05:19:04;;;;;;;5.90;4.00;;;;;;;8.08;82.89;99977.46;111013;1237;72615;-67
2024/03/28 05:21:31;;;;;;;6.10;3.80;;;;;;;8.09;82.30;99975.08;111012;1237;71130;-67
2024/03/28 05:23:58;;;;;;;6.20;4.20;;;;;;;8.11;81.81;99974.40;111048;1236;61908;-67
2024/03/28 05:26:25;;;;;;;5.50;4.10;;;;;;;8.12;81.51;99972.70;111023;1234;62126;-66
2024/03/28 05:28:52;;;;;;;5.90;4.00;;;;;;;8.16;81.22;99971.23;111080;1234;75333;-67
2024/03/28 05:31:19;;;;;;;6.10;3.70;;;;;;;8.18;80.97;99971.14;111024;1234;72690;-66
2024/03/28 05:33:46;;;;;;;6.20;3.70;;;;;;;8.21;80.69;99972.77;111037;1233;72510;-67
2024/03/28 05:36:13;;;;;;;5.10;3.50;;;;;;;8.23;80.41;99974.44;111107;1234;62105;-66
2024/03/28 05:38:39;;;;;;;6.10;3.90;;;;;;;8.28;80.27;99971.87;111063;1233;62060;-66
2024/03/28 05:41:06;;;;;;;5.70;3.90;;;;;;;8.32;80.12;99971.36;111103;1233;76185;-67
2024/03/28 05:43:33;;;;;;;6.00;3.60;;;;;;;8.36;79.51;99965.96;110995;1234;72590;-68
2024/03/28 05:46:00;;;;;;;7.30;4.10;;;;;;;8.40;79.14;99968.99;110970;1233;72944;-67
2024/03/28 05:48:27;;;;;;;6.40;3.80;;;;;;;8.44;78.72;99967.09;111001;1234;62000;-67
2024/03/28 05:50:54;;;;;;;6.30;3.40;;;;;;;8.47;78.16;99972.48;110996;1234;62132;-66
2024/03/28 05:53:21;;;;;;;4.70;3.40;;;;;;;8.52;78.15;99964.06;111065;1235;74787;-66
2024/03/28 05:55:48;;;;;;;5.80;3.80;;;;;;;8.56;77.48;99960.04;111027;1234;74011;-66
2024/03/28 05:58:47;;;;;;;5.40;3.40;;;;;;;8.57;76.49;99956.36;110957;1233;72078;-67
2024/03/28 06:01:16;;;;;;;5.10;3.40;;;;;;;8.61;75.98;99951.34;111048;1232;62010;-67
2024/03/28 06:03:43;;;;;;;5.70;3.40;;;;;;;8.66;75.73;99949.48;111061;1233;60860;-67
2024/03/28 06:06:10;;;;;;;4.60;3.10;;;;;;;8.69;75.00;99951.48;111094;1236;75483;-67
2024/03/28 06:08:38;;;;;;;5.60;3.20;;;;;;;8.75;74.66;99949.70;111074;1233;72870;-67
2024/03/28 06:11:04;;;;;;;5.50;3.40;;;;;;;8.82;73.77;99948.71;111062;1233;72571;-67
2024/03/28 06:13:32;;;;;;;4.70;2.90;;;;;;;8.88;73.42;99941.87;110975;1232;62000;-67
2024/03/28 06:15:59;;;;;;;5.70;3.30;;;;;;;8.94;72.82;99935.13;111077;1233;62026;-68
2024/03/28 06:18:27;;;;;;;6.30;3.00;;;;;;;8.98;72.24;99931.20;110994;1234;75159;-66
2024/03/28 06:21:12;;;;;;;5.30;3.40;;;;;;;9.02;71.52;99929.92;111071;1237;71132;-66
2024/03/28 06:23:39;;;;;;;5.80;3.30;;;;;;;9.08;71.17;99928.14;110938;1235;72141;-66
2024/03/28 06:26:06;;;;;;;6.20;3.10;;;;;;;9.12;70.58;99920.52;111038;1233;61889;-67
2024/03/28 06:28:33;;;;;;;4.70;3.00;;;;;;;9.14;69.78;99918.92;111082;1233;61102;-67
2024/03/28 06:31:00;;;;;;;5.20;3.00;;;;;;;9.19;69.70;99916.77;111032;1235;74812;-66
2024/03/28 06:33:27;;;;;;;4.80;2.70;;;;;;;9.25;69.64;99914.11;111029;1234;73183;-67
2024/03/28 06:35:55;;;;;;;5.00;2.90;;;;;;;9.31;69.23;99906.28;111013;1233;72346;-66
2024/03/28 06:38:22;;;;;;;5.60;3.00;;;;;;;9.36;68.33;99905.08;110817;1233;61915;-66
2024/03/28 06:40:58;;;;;;;5.20;3.10;;;;;;;9.42;67.91;99898.36;111082;1233;61279;-67
2024/03/28 06:43:25;;;;;;;4.50;2.70;;;;;;;9.50;67.55;99895.44;111026;1232;75758;-68
2024/03/28 06:45:52;;;;;;;4.40;2.80;;;;;;;9.59;67.11;99891.60;110896;1233;72773;-70
2024/03/28 06:48:19;;;;;;;5.10;2.90;;;;;;;9.69;66.97;99889.67;110992;1236;73224;-70
2024/03/28 06:50:46;;;;;;;4.90;3.00;;;;;;;9.82;66.97;99887.13;111042;1232;62016;-67
2024/03/28 06:53:14;;;;;;;4.80;3.00;;;;;;;9.93;66.17;99888.06;111015;1233;61991;-66
2024/03/28 06:55:41;;;;;;;4.80;3.10;;;;;;;10.02;65.68;99884.69;111058;1233;73927;-67
2024/03/28 06:58:08;;;;;;;4.80;2.60;;;;;;;10.13;65.53;99882.53;111040;1232;72452;-67
2024/03/28 07:00:35;;;;;;;3.70;2.40;;;;;;;10.22;64.92;99873.19;111037;1237;72827;-68
2024/03/28 07:03:03;;;;;;;4.60;2.60;;;;;;;10.25;64.42;99866.34;111009;1234;61056;-67
2024/03/28 07:05:31;;;;;;;5.10;2.90;;;;;;;10.30;63.99;99865.08;111016;1234;62002;-66
2024/03/28 07:07:58;;;;;;;5.50;2.90;;;;;;;10.37;63.58;99862.74;111013;1234;76057;-66
2024/03/28 07:10:25;;;;;;;5.90;3.10;;;;;;;10.40;62.92;99862.80;111101;1233;72561;-67
2024/03/28 07:12:51;;;;;;;4.40;2.70;;;;;;;10.46;63.13;99862.34;111068;1233;71090;-66
2024/03/28 07:15:18;;;;;;;4.20;2.50;;;;;;;10.55;63.16;99858.67;111103;1233;61851;-65
2024/03/28 07:17:45;;;;;;;4.10;2.60;;;;;;;10.69;63.13;99857.60;111049;1234;61874;-67
2024/03/28 07:20:13;;;;;;;5.50;3.10;;;;;;;10.82;62.32;99852.77;111037;1237;76499;-67
2024/03/28 07:22:41;;;;;;;5.50;3.40;;;;;;;10.94;62.05;99852.48;111035;1233;72936;-67
2024/03/28 07:25:08;;;;;;;4.40;2.80;;;;;;;11.08;61.32;99845.03;111040;1234;72420;-66
2024/03/28 07:27:35;;;;;;;4.60;2.60;;;;;;;11.20;60.53;99839.18;111021;1233;61946;-66
2024/03/28 07:30:03;;;;;;;4.00;2.30;;;;;;;11.31;59.87;99841.73;111055;1233;61946;-66
2024/03/28 07:32:30;;;;;;;4.30;2.40;;;;;;;11.42;59.29;99833.62;111042;1233;75528;-68
2024/03/28 07:34:57;;;;;;;4.70;2.30;;;;;;;11.51;58.33;99829.90;111004;1235;72766;-68
2024/03/28 07:37:24;;;;;;;4.90;2.30;;;;;;;11.63;58.26;99825.69;111033;1237;71183;-66
2024/03/28 07:39:52;;;;;;;5.00;2.20;;;;;;;11.76;57.42;99825.61;111045;1234;61898;-68
2024/03/28 07:42:19;;;;;;;5.10;2.30;;;;;;;11.88;56.82;99823.01;111077;1234;61955;-68
2024/03/28 07:44:49;;;;;;;4.30;2.20;;;;;;;12.01;56.52;99817.69;111005;1233;75171;-67
2024/03/28 07:47:15;;;;;;;4.10;2.10;;;;;;;12.13;55.75;99814.50;111040;1235;72473;-65
2024/03/28 07:49:46;;;;;;;4.90;2.00;;;;;;;12.17;54.70;99820.08;111003;1234;71390;-69
2024/03/28 07:52:12;;;;;;;3.60;2.10;;;;;;;12.19;54.27;99816.58;111051;1233;62105;-67
2024/03/28 07:54:40;;;;;;;4.60;2.10;;;;;;;12.19;53.90;99815.88;111020;1233;61924;-68
2024/03/28 07:57:07;;;;;;;4.50;2.20;;;;;;;12.19;54.06;99815.51;111027;1234;74421;-67
2024/03/28 07:59:34;;;;;;;4.40;2.40;;;;;;;12.21;53.92;99820.67;111003;1236;71862;-68
2024/03/28 08:02:01;;;;;;;5.50;2.60;;;;;;;12.23;53.63;99814.12;111014;1234;72524;-67
2024/03/28 08:04:28;;;;;;;4.10;2.60;;;;;;;12.26;53.82;99813.98;110995;1234;61997;-67
2024/03/28 08:06:55;;;;;;;4.70;2.40;;;;;;;12.34;54.13;99818.38;111026;1234;62007;-67
2024/03/28 08:09:22;;;;;;;4.10;2.10;;;;;;;12.47;54.26;99816.45;111032;1234;74194;-66
2024/03/28 08:11:50;;;;;;;4.80;2.60;;;;;;;12.61;54.12;99811.55;111040;1234;72752;-67
2024/03/28 08:14:17;;;;;;;3.30;2.10;;;;;;;12.73;53.58;99810.81;111050;1234;71668;-69
2024/03/28 08:16:45;;;;;;;4.00;2.10;;;;;;;12.80;53.42;99810.27;111038;1234;61875;-68
2024/03/28 08:19:13;;;;;;;4.90;2.60;;;;;;;12.84;53.20;99808.87;111017;1232;62086;-68
2024/03/28 08:21:40;;;;;;;7.00;2.50;;;;;;;12.88;52.96;99808.27;110853;1233;75293;-68
2024/03/28 08:24:07;;;;;;;3.90;2.10;;;;;;;12.90;53.01;99810.39;111001;1235;73631;-67
2024/03/28 08:26:35;;;;;;;3.00;1.80;;;;;;;12.89;53.26;99809.01;111110;1233;71281;-68
2024/03/28 08:29:01;;;;;;;4.20;2.10;;;;;;;12.91;53.25;99799.94;110997;1234;61971;-68
2024/03/28 08:31:29;;;;;;;5.60;2.80;;;;;;;13.01;53.11;99798.19;111035;1233;62049;-66
2024/03/28 08:33:55;;;;;;;4.20;2.50;;;;;;;13.06;52.92;99795.59;110992;1234;74828;-66
2024/03/28 08:36:22;;;;;;;5.50;2.60;;;;;;;13.12;52.85;99799.09;111063;1234;72631;-65
2024/03/28 08:38:51;;;;;;;4.70;2.40;;;;;;;13.20;52.76;99799.56;111074;1232;72380;-66
2024/03/28 08:41:18;;;;;;;6.60;2.70;;;;;;;13.29;52.82;99797.29;111063;1233;61918;-66
2024/03/28 08:43:48;;;;;;;4.30;2.30;;;;;;;13.41;52.86;99794.30;110973;1235;61902;-66
2024/03/28 08:46:15;;;;;;;6.10;2.80;;;;;;;13.51;52.50;99795.43;111047;1233;74192;-67
2024/03/28 08:48:46;;;;;;;5.40;2.30;;;;;;;13.57;52.45;99793.75;111026;1233;72519;-67
2024/03/28 08:51:13;;;;;;;8.20;2.30;;;;;;;13.66;52.18;99797.20;111056;1233;73795;-67
2024/03/28 08:53:40;;;;;;;4.50;2.20;;;;;;;13.72;51.78;99796.18;111011;1235;62081;-66
2024/03/28 08:56:08;;;;;;;5.50;2.10;;;;;;;13.78;51.80;99797.02;111027;1234;62126;-67
2024/03/28 08:58:35;;;;;;;5.00;2.50;;;;;;;13.86;51.91;99793.67;111027;1237;75436;-66
2024/03/28 09:01:04;;;;;;;4.20;2.10;;;;;;;13.95;51.93;99784.59;111087;1234;71601;-67
2024/03/28 09:03:31;;;;;;;5.00;2.20;;;;;;;14.06;51.87;99780.61;111036;1233;71137;-65
2024/03/28 09:05:58;;;;;;;5.20;2.40;;;;;;;14.16;51.78;99772.95;111032;1235;61976;-66
2024/03/28 09:08:25;;;;;;;6.00;2.50;;;;;;;14.25;51.66;99762.71;110993;1234;61883;-67
2024/03/28 09:10:55;;;;;;;5.30;2.40;;;;;;;14.34;51.88;99754.90;111078;1233;76609;-66
2024/03/28 09:13:22;;;;;;;4.70;2.00;;;;;;;14.47;52.07;99753.30;110957;1237;72889;-67
2024/03/28 09:15:49;;;;;;;5.60;2.40;;;;;;;14.59;51.97;99742.98;110804;1233;72471;-66
2024/03/28 09:18:16;;;;;;;4.30;2.10;;;;;;;14.73;51.81;99739.82;110830;1233;61918;-67
2024/03/28 09:20:45;;;;;;;4.50;2.30;;;;;;;14.85;51.14;99730.35;110815;1236;61908;-67
2024/03/28 09:23:12;;;;;;;3.50;2.00;;;;;;;14.97;51.11;99737.86;111023;1234;74217;-66
2024/03/28 09:25:39;;;;;;;4.20;2.10;;;;;;;15.09;50.97;99738.05;110865;1234;72611;-66
2024/03/28 09:28:07;;;;;;;3.70;1.80;;;;;;;15.20;50.68;99734.23;110847;1237;72499;-66
2024/03/28 09:30:34;;;;;;;4.00;2.00;;;;;;;15.31;50.61;99729.83;110916;1233;61877;-67
2024/03/28 09:33:01;;;;;;;4.70;1.90;;;;;;;15.40;50.52;99725.83;110851;1233;61925;-67
2024/03/28 09:35:28;;;;;;;5.80;2.00;;;;;;;15.48;50.23;99721.33;110906;1234;74199;-67
2024/03/28 09:37:56;;;;;;;4.10;1.80;;;;;;;15.54;50.07;99719.83;110895;1234;72390;-66
2024/03/28 09:40:23;;;;;;;4.80;2.10;;;;;;;15.58;50.18;99720.96;110922;1236;73856;-68
2024/03/28 09:42:50;;;;;;;4.50;1.80;;;;;;;15.65;50.58;99718.33;110915;1233;61908;-68
2024/03/28 09:45:17;;;;;;;6.40;2.30;;;;;;;15.72;50.55;99721.27;110716;1238;61998;-68
2024/03/28 09:47:44;;;;;;;4.50;2.00;;;;;;;15.74;50.51;99721.59;110787;1234;75317;-67
2024/03/28 09:50:14;;;;;;;4.30;2.00;;;;;;;15.79;50.61;99714.04;110845;1233;72492;-67
2024/03/28 09:52:41;;;;;;;4.90;2.20;;;;;;;15.87;50.76;99714.27;110876;1237;71975;-67
2024/03/28 09:55:08;;;;;;;5.30;2.10;;;;;;;15.96;50.57;99709.88;110713;1234;61913;-66
2024/03/28 09:57:37;;;;;;;4.10;1.80;;;;;;;16.03;50.49;99707.33;110842;1233;62016;-68
2024/03/28 10:00:06;;;;;;;4.70;2.10;;;;;;;16.08;50.47;99700.20;110947;1234;75537;-66
2024/03/28 10:02:53;;;;;;;5.00;2.10;;;;;;;16.16;50.41;99691.84;110927;1236;74399;-66
2024/03/28 10:05:20;;;;;;;7.90;2.40;;;;;;;16.23;50.25;99692.11;110880;1232;72613;-66
2024/03/28 10:07:49;;;;;;;5.90;2.40;;;;;;;16.30;50.34;99692.33;111373;1233;61383;-65
2024/03/28 10:10:17;;;;;;;5.20;2.40;;;;;;;16.37;50.31;99688.88;111078;1233;59990;-66
2024/03/28 10:13:07;;;;;;;5.80;2.20;;;;;;;16.45;50.23;99683.08;111070;1236;75335;-67
2024/03/28 10:15:54;;;;;;;4.60;2.00;;;;;;;16.54;50.08;99681.08;111059;1233;73053;-67
2024/03/28 10:18:21;;;;;;;5.30;1.90;;;;;;;16.62;50.00;99687.51;111151;1234;72679;-66
2024/03/28 10:20:57;;;;;;;4.60;2.20;;;;;;;16.69;49.65;99689.42;110942;1233;62487;-68
2024/03/28 10:23:25;;;;;;;4.70;2.20;;;;;;;16.74;49.66;99690.57;111127;1232;60266;-65
2024/03/28 10:25:52;;;;;;;6.20;2.30;;;;;;;16.78;49.36;99684.87;111081;1234;75141;-65
2024/03/28 10:28:23;;;;;;;7.40;2.50;;;;;;;16.82;48.96;99684.42;111058;1234;73740;-68
2024/03/28 10:30:51;;;;;;;3.90;1.90;;;;;;;16.85;49.03;99680.38;111096;1233;72336;-67
2024/03/28 10:33:19;;;;;;;5.50;2.20;;;;;;;16.87;48.61;99680.16;111046;1233;61873;-67
2024/03/28 10:35:57;;;;;;;3.80;1.90;;;;;;;16.89;48.85;99675.23;111034;1235;61915;-67
2024/03/28 10:38:24;;;;;;;5.20;2.00;;;;;;;16.95;48.83;99668.99;111018;1232;75506;-65
2024/03/28 10:40:59;;;;;;;4.90;1.80;;;;;;;17.01;48.80;99667.95;111073;1237;72746;-67
2024/03/28 10:43:26;;;;;;;4.40;2.00;;;;;;;17.07;48.81;99652.41;111038;1235;72488;-65
2024/03/28 10:45:59;;;;;;;5.20;2.10;;;;;;;17.09;48.30;99648.18;111050;1234;61914;-66
2024/03/28 10:48:26;;;;;;;4.70;2.10;;;;;;;17.06;48.31;99647.20;110849;1235;61520;-68
2024/03/28 10:51:23;;;;;;;5.60;2.00;;;;;;;17.05;48.22;99647.79;111009;1234;74102;-67
2024/03/28 10:54:04;;;;;;;5.50;1.90;;;;;;;17.03;48.49;99649.52;111026;1237;72704;-66
2024/03/28 10:56:42;;;;;;;5.30;2.10;;;;;;;17.13;48.75;99641.52;111047;1237;73489;-66
2024/03/28 10:59:09;;;;;;;4.60;2.00;;;;;;;17.24;48.84;99639.42;110813;1233;61199;-66
2024/03/28 11:01:36;;;;;;;4.60;2.10;;;;;;;17.30;48.43;99638.45;110819;1234;62066;-67
2024/03/28 11:04:04;;;;;;;3.90;1.70;;;;;;;17.34;48.25;99636.69;111029;1234;75462;-67
2024/03/28 11:06:32;;;;;;;4.60;2.00;;;;;;;17.39;48.17;99631.77;111062;1238;71169;-66
2024/03/28 11:09:03;;;;;;;4.20;1.80;;;;;;;17.43;48.19;99624.84;110689;1234;71377;-68
2024/03/28 11:11:30;;;;;;;4.90;2.20;;;;;;;17.45;48.23;99621.23;111078;1233;61937;-69
2024/03/28 11:13:57;;;;;;;5.80;2.40;;;;;;;17.46;48.20;99613.48;111017;1234;62129;-67
2024/03/28 11:16:24;;;;;;;5.00;2.10;;;;;;;17.48;48.39;99616.27;111049;1234;74093;-67
2024/03/28 11:18:51;;;;;;;4.20;2.20;;;;;;;17.50;48.51;99614.09;111061;1236;72658;-66
2024/03/28 11:21:34;;;;;;;4.10;1.90;;;;;;;17.52;48.36;99607.32;111020;1232;70348;-68
2024/03/28 11:24:01;;;;;;;6.00;2.40;;;;;;;17.54;48.51;99603.84;111114;1232;61902;-68
2024/03/28 11:26:28;;;;;;;4.30;2.10;;;;;;;17.54;48.47;99602.16;111104;1236;61878;-69
2024/03/28 11:29:08;;;;;;;4.10;1.90;;;;;;;17.55;48.61;99601.80;111049;1232;76370;-68
2024/03/28 11:31:35;;;;;;;4.60;2.10;;;;;;;17.56;48.57;99602.52;111036;1234;71419;-67